sensor_id;sensor_type;location;lat;lon;timestamp;temperature;humidity
67555;HTU21D;54385;53.516;49.456;2022-07-29T00:01:17;19.50;65.28
67555;HTU21D;54385;53.516;49.456;2022-07-29T00:03:43;19.50;65.29
67555;HTU21D;54385;53.516;49.456;2022-07-29T00:06:10;19.44;65.53
67555;HTU21D;54385;53.516;49.456;2022-07-29T00:08:40;19.36;65.85
67555;HTU21D;54385;53.516;49.456;2022-07-29T00:11:07;19.25;66.40
67555;HTU21D;54385;53.516;49.456;2022-07-29T00:13:33;19.22;66.62
67555;HTU21D;54385;53.516;49.456;2022-07-29T00:16:00;19.16;66.92
67555;HTU21D;54385;53.516;49.456;2022-07-29T00:18:26;19.10;67.23
67555;HTU21D;54385;53.516;49.456;2022-07-29T00:20:53;19.12;67.41
67555;HTU21D;54385;53.516;49.456;2022-07-29T00:23:19;19.11;67.80
67555;HTU21D;54385;53.516;49.456;2022-07-29T00:25:46;19.07;67.97
67555;HTU21D;54385;53.516;49.456;2022-07-29T00:28:12;19.03;68.20
67555;HTU21D;54385;53.516;49.456;2022-07-29T00:30:38;18.96;68.56
67555;HTU21D;54385;53.516;49.456;2022-07-29T00:33:08;18.91;68.94
67555;HTU21D;54385;53.516;49.456;2022-07-29T00:35:35;18.84;69.47
67555;HTU21D;54385;53.516;49.456;2022-07-29T00:38:16;18.76;70.19
67555;HTU21D;54385;53.516;49.456;2022-07-29T00:40:44;18.73;69.86
67555;HTU21D;54385;53.516;49.456;2022-07-29T00:43:11;18.77;69.40
67555;HTU21D;54385;53.516;49.456;2022-07-29T00:45:38;18.81;69.31
67555;HTU21D;54385;53.516;49.456;2022-07-29T00:48:05;18.83;69.12
67555;HTU21D;54385;53.516;49.456;2022-07-29T00:50:32;18.83;68.91
67555;HTU21D;54385;53.516;49.456;2022-07-29T00:52:59;18.78;68.68
67555;HTU21D;54385;53.516;49.456;2022-07-29T00:55:26;18.74;68.51
67555;HTU21D;54385;53.516;49.456;2022-07-29T00:57:52;18.71;68.32
67555;HTU21D;54385;53.516;49.456;2022-07-29T01:00:22;18.72;68.13
67555;HTU21D;54385;53.516;49.456;2022-07-29T01:02:49;18.74;67.97
67555;HTU21D;54385;53.516;49.456;2022-07-29T01:05:21;18.71;68.42
67555;HTU21D;54385;53.516;49.456;2022-07-29T01:07:52;18.66;68.46
67555;HTU21D;54385;53.516;49.456;2022-07-29T01:10:20;18.62;68.30
67555;HTU21D;54385;53.516;49.456;2022-07-29T01:12:49;18.61;68.22
67555;HTU21D;54385;53.516;49.456;2022-07-29T01:15:17;18.64;67.88
67555;HTU21D;54385;53.516;49.456;2022-07-29T01:17:50;18.63;68.11
67555;HTU21D;54385;53.516;49.456;2022-07-29T01:26:03;18.65;67.85
67555;HTU21D;54385;53.516;49.456;2022-07-29T01:28:38;18.71;67.69
67555;HTU21D;54385;53.516;49.456;2022-07-29T01:31:07;18.76;67.61
67555;HTU21D;54385;53.516;49.456;2022-07-29T01:33:38;18.81;67.43
67555;HTU21D;54385;53.516;49.456;2022-07-29T01:36:37;18.80;67.56
67555;HTU21D;54385;53.516;49.456;2022-07-29T01:39:11;18.81;67.31
67555;HTU21D;54385;53.516;49.456;2022-07-29T01:41:42;18.86;67.23
67555;HTU21D;54385;53.516;49.456;2022-07-29T01:44:22;18.91;67.20
67555;HTU21D;54385;53.516;49.456;2022-07-29T01:46:55;18.94;67.12
67555;HTU21D;54385;53.516;49.456;2022-07-29T01:49:27;19.02;66.98
67555;HTU21D;54385;53.516;49.456;2022-07-29T01:52:11;19.10;67.10
67555;HTU21D;54385;53.516;49.456;2022-07-29T01:54:42;19.13;67.00
67555;HTU21D;54385;53.516;49.456;2022-07-29T01:57:16;19.18;66.26
67555;HTU21D;54385;53.516;49.456;2022-07-29T01:59:45;19.27;65.91
67555;HTU21D;54385;53.516;49.456;2022-07-29T02:02:14;19.36;65.41
67555;HTU21D;54385;53.516;49.456;2022-07-29T02:04:43;19.38;64.98
67555;HTU21D;54385;53.516;49.456;2022-07-29T02:07:15;19.43;64.24
67555;HTU21D;54385;53.516;49.456;2022-07-29T02:09:44;19.41;64.02
67555;HTU21D;54385;53.516;49.456;2022-07-29T02:12:12;19.43;63.87
67555;HTU21D;54385;53.516;49.456;2022-07-29T02:14:43;19.51;63.44
67555;HTU21D;54385;53.516;49.456;2022-07-29T02:17:12;19.47;63.56
67555;HTU21D;54385;53.516;49.456;2022-07-29T02:19:39;19.48;63.64
67555;HTU21D;54385;53.516;49.456;2022-07-29T02:22:07;19.47;63.83
67555;HTU21D;54385;53.516;49.456;2022-07-29T02:24:39;19.51;63.53
67555;HTU21D;54385;53.516;49.456;2022-07-29T02:27:07;19.46;63.66
67555;HTU21D;54385;53.516;49.456;2022-07-29T02:29:35;19.45;63.82
67555;HTU21D;54385;53.516;49.456;2022-07-29T02:32:03;19.50;63.59
67555;HTU21D;54385;53.516;49.456;2022-07-29T02:34:31;19.60;63.24
67555;HTU21D;54385;53.516;49.456;2022-07-29T02:36:59;19.68;63.02
67555;HTU21D;54385;53.516;49.456;2022-07-29T02:39:28;19.76;62.46
67555;HTU21D;54385;53.516;49.456;2022-07-29T02:42:01;19.86;61.85
67555;HTU21D;54385;53.516;49.456;2022-07-29T02:44:29;19.89;61.75
67555;HTU21D;54385;53.516;49.456;2022-07-29T02:47:10;20.00;60.97
67555;HTU21D;54385;53.516;49.456;2022-07-29T02:49:45;20.11;60.93
67555;HTU21D;54385;53.516;49.456;2022-07-29T02:52:21;20.21;60.27
67555;HTU21D;54385;53.516;49.456;2022-07-29T02:55:33;20.32;59.44
67555;HTU21D;54385;53.516;49.456;2022-07-29T02:58:24;20.37;59.99
67555;HTU21D;54385;53.516;49.456;2022-07-29T03:00:49;20.41;59.85
67555;HTU21D;54385;53.516;49.456;2022-07-29T03:03:18;20.47;60.00
67555;HTU21D;54385;53.516;49.456;2022-07-29T03:05:45;20.61;59.52
67555;HTU21D;54385;53.516;49.456;2022-07-29T03:08:12;20.64;58.98
67555;HTU21D;54385;53.516;49.456;2022-07-29T03:10:48;20.74;58.54
67555;HTU21D;54385;53.516;49.456;2022-07-29T03:13:16;20.88;58.09
67555;HTU21D;54385;53.516;49.456;2022-07-29T03:15:44;20.90;57.84
67555;HTU21D;54385;53.516;49.456;2022-07-29T03:18:11;20.99;57.50
67555;HTU21D;54385;53.516;49.456;2022-07-29T03:20:38;21.13;57.36
67555;HTU21D;54385;53.516;49.456;2022-07-29T03:23:05;21.23;57.13
67555;HTU21D;54385;53.516;49.456;2022-07-29T03:25:31;21.29;56.95
67555;HTU21D;54385;53.516;49.456;2022-07-29T03:27:58;21.39;56.60
67555;HTU21D;54385;53.516;49.456;2022-07-29T03:30:25;21.54;56.45
67555;HTU21D;54385;53.516;49.456;2022-07-29T03:32:52;21.67;56.19
67555;HTU21D;54385;53.516;49.456;2022-07-29T03:35:21;21.90;55.70
67555;HTU21D;54385;53.516;49.456;2022-07-29T03:37:53;22.09;55.12
67555;HTU21D;54385;53.516;49.456;2022-07-29T03:40:31;22.20;54.64
67555;HTU21D;54385;53.516;49.456;2022-07-29T03:43:02;22.31;54.77
67555;HTU21D;54385;53.516;49.456;2022-07-29T03:45:30;22.43;54.38
67555;HTU21D;54385;53.516;49.456;2022-07-29T03:48:02;22.43;53.72
67555;HTU21D;54385;53.516;49.456;2022-07-29T03:50:32;22.50;53.81
67555;HTU21D;54385;53.516;49.456;2022-07-29T03:53:00;22.60;53.64
67555;HTU21D;54385;53.516;49.456;2022-07-29T03:55:36;22.67;53.58
67555;HTU21D;54385;53.516;49.456;2022-07-29T03:58:13;22.71;53.35
67555;HTU21D;54385;53.516;49.456;2022-07-29T04:00:44;22.63;53.23
67555;HTU21D;54385;53.516;49.456;2022-07-29T04:03:12;22.64;53.19
67555;HTU21D;54385;53.516;49.456;2022-07-29T04:05:44;22.65;52.75
67555;HTU21D;54385;53.516;49.456;2022-07-29T04:08:11;22.63;52.99
67555;HTU21D;54385;53.516;49.456;2022-07-29T04:10:38;22.66;53.50
67555;HTU21D;54385;53.516;49.456;2022-07-29T04:13:04;22.73;53.69
67555;HTU21D;54385;53.516;49.456;2022-07-29T04:15:31;22.80;53.68
67555;HTU21D;54385;53.516;49.456;2022-07-29T04:17:58;22.86;53.73
67555;HTU21D;54385;53.516;49.456;2022-07-29T04:20:24;22.88;53.45
67555;HTU21D;54385;53.516;49.456;2022-07-29T04:22:51;22.85;53.75
67555;HTU21D;54385;53.516;49.456;2022-07-29T04:25:18;22.94;53.97
67555;HTU21D;54385;53.516;49.456;2022-07-29T04:27:45;23.00;53.93
67555;HTU21D;54385;53.516;49.456;2022-07-29T04:30:26;23.13;54.00
67555;HTU21D;54385;53.516;49.456;2022-07-29T04:32:53;23.18;53.80
67555;HTU21D;54385;53.516;49.456;2022-07-29T04:35:22;23.24;53.98
67555;HTU21D;54385;53.516;49.456;2022-07-29T04:37:50;23.31;53.52
67555;HTU21D;54385;53.516;49.456;2022-07-29T04:40:17;23.43;53.27
67555;HTU21D;54385;53.516;49.456;2022-07-29T04:42:43;23.46;52.89
67555;HTU21D;54385;53.516;49.456;2022-07-29T04:45:10;23.59;52.48
67555;HTU21D;54385;53.516;49.456;2022-07-29T04:47:36;23.70;52.36
67555;HTU21D;54385;53.516;49.456;2022-07-29T04:50:03;23.76;51.98
67555;HTU21D;54385;53.516;49.456;2022-07-29T04:52:32;23.89;51.07
67555;HTU21D;54385;53.516;49.456;2022-07-29T04:54:58;23.97;50.27
67555;HTU21D;54385;53.516;49.456;2022-07-29T04:57:25;24.10;49.71
67555;HTU21D;54385;53.516;49.456;2022-07-29T04:59:52;24.27;49.44
67555;HTU21D;54385;53.516;49.456;2022-07-29T05:02:18;24.39;48.29
67555;HTU21D;54385;53.516;49.456;2022-07-29T05:04:44;24.48;47.31
67555;HTU21D;54385;53.516;49.456;2022-07-29T05:07:11;24.51;46.98
67555;HTU21D;54385;53.516;49.456;2022-07-29T05:09:37;24.64;46.52
67555;HTU21D;54385;53.516;49.456;2022-07-29T05:12:04;24.79;46.11
67555;HTU21D;54385;53.516;49.456;2022-07-29T05:14:31;24.85;46.28
67555;HTU21D;54385;53.516;49.456;2022-07-29T05:16:57;24.85;45.51
67555;HTU21D;54385;53.516;49.456;2022-07-29T05:19:23;24.79;45.87
67555;HTU21D;54385;53.516;49.456;2022-07-29T05:21:50;24.89;46.08
67555;HTU21D;54385;53.516;49.456;2022-07-29T05:24:16;24.91;45.61
67555;HTU21D;54385;53.516;49.456;2022-07-29T05:26:43;25.01;44.65
67555;HTU21D;54385;53.516;49.456;2022-07-29T05:29:10;25.08;44.57
67555;HTU21D;54385;53.516;49.456;2022-07-29T05:31:37;25.22;44.18
67555;HTU21D;54385;53.516;49.456;2022-07-29T05:34:03;25.40;43.80
67555;HTU21D;54385;53.516;49.456;2022-07-29T05:36:30;25.51;42.87
67555;HTU21D;54385;53.516;49.456;2022-07-29T05:38:56;25.67;41.90
67555;HTU21D;54385;53.516;49.456;2022-07-29T05:41:23;25.75;41.54
67555;HTU21D;54385;53.516;49.456;2022-07-29T05:43:49;25.83;42.39
67555;HTU21D;54385;53.516;49.456;2022-07-29T05:46:16;25.80;42.12
67555;HTU21D;54385;53.516;49.456;2022-07-29T05:48:46;25.71;41.29
67555;HTU21D;54385;53.516;49.456;2022-07-29T05:51:13;25.65;41.57
67555;HTU21D;54385;53.516;49.456;2022-07-29T05:53:39;25.78;41.60
67555;HTU21D;54385;53.516;49.456;2022-07-29T05:56:06;25.90;41.31
67555;HTU21D;54385;53.516;49.456;2022-07-29T05:58:36;26.03;40.42
67555;HTU21D;54385;53.516;49.456;2022-07-29T06:01:08;26.12;40.26
67555;HTU21D;54385;53.516;49.456;2022-07-29T06:03:38;26.19;40.40
67555;HTU21D;54385;53.516;49.456;2022-07-29T06:06:04;26.18;40.04
67555;HTU21D;54385;53.516;49.456;2022-07-29T06:08:33;26.16;40.30
67555;HTU21D;54385;53.516;49.456;2022-07-29T06:11:00;26.16;40.07
67555;HTU21D;54385;53.516;49.456;2022-07-29T06:13:27;26.20;39.73
67555;HTU21D;54385;53.516;49.456;2022-07-29T06:15:54;26.26;40.03
67555;HTU21D;54385;53.516;49.456;2022-07-29T06:18:21;26.37;39.70
67555;HTU21D;54385;53.516;49.456;2022-07-29T06:20:50;26.45;39.40
67555;HTU21D;54385;53.516;49.456;2022-07-29T06:23:18;26.49;38.82
67555;HTU21D;54385;53.516;49.456;2022-07-29T06:25:44;26.52;38.69
67555;HTU21D;54385;53.516;49.456;2022-07-29T06:28:11;26.57;38.63
67555;HTU21D;54385;53.516;49.456;2022-07-29T06:30:38;26.57;38.83
67555;HTU21D;54385;53.516;49.456;2022-07-29T06:33:05;26.67;38.42
67555;HTU21D;54385;53.516;49.456;2022-07-29T06:35:35;26.69;37.06
67555;HTU21D;54385;53.516;49.456;2022-07-29T06:38:05;26.76;37.64
67555;HTU21D;54385;53.516;49.456;2022-07-29T06:40:32;26.85;37.40
67555;HTU21D;54385;53.516;49.456;2022-07-29T06:43:17;26.90;36.79
67555;HTU21D;54385;53.516;49.456;2022-07-29T06:45:43;26.96;37.33
67555;HTU21D;54385;53.516;49.456;2022-07-29T06:48:10;26.95;36.96
67555;HTU21D;54385;53.516;49.456;2022-07-29T06:50:37;26.89;37.53
67555;HTU21D;54385;53.516;49.456;2022-07-29T06:53:03;26.77;37.66
67555;HTU21D;54385;53.516;49.456;2022-07-29T06:55:30;26.65;37.84
67555;HTU21D;54385;53.516;49.456;2022-07-29T06:57:56;26.76;37.89
67555;HTU21D;54385;53.516;49.456;2022-07-29T07:00:28;26.81;36.79
67555;HTU21D;54385;53.516;49.456;2022-07-29T07:02:57;26.86;37.64
67555;HTU21D;54385;53.516;49.456;2022-07-29T07:05:23;26.93;37.62
67555;HTU21D;54385;53.516;49.456;2022-07-29T07:07:50;27.02;36.69
67555;HTU21D;54385;53.516;49.456;2022-07-29T07:10:16;27.08;36.65
67555;HTU21D;54385;53.516;49.456;2022-07-29T07:12:43;27.19;36.86
67555;HTU21D;54385;53.516;49.456;2022-07-29T07:15:09;27.21;36.27
67555;HTU21D;54385;53.516;49.456;2022-07-29T07:17:36;27.24;36.61
67555;HTU21D;54385;53.516;49.456;2022-07-29T07:20:05;27.36;36.44
67555;HTU21D;54385;53.516;49.456;2022-07-29T07:22:31;27.44;36.69
67555;HTU21D;54385;53.516;49.456;2022-07-29T07:24:58;27.41;36.27
67555;HTU21D;54385;53.516;49.456;2022-07-29T07:27:24;27.30;36.52
67555;HTU21D;54385;53.516;49.456;2022-07-29T07:29:53;27.34;36.58
67555;HTU21D;54385;53.516;49.456;2022-07-29T07:32:23;27.50;36.23
67555;HTU21D;54385;53.516;49.456;2022-07-29T07:34:49;27.58;36.33
67555;HTU21D;54385;53.516;49.456;2022-07-29T07:37:16;27.71;36.43
67555;HTU21D;54385;53.516;49.456;2022-07-29T07:39:45;27.67;36.18
67555;HTU21D;54385;53.516;49.456;2022-07-29T07:42:12;27.63;36.05
67555;HTU21D;54385;53.516;49.456;2022-07-29T07:44:42;27.66;35.44
67555;HTU21D;54385;53.516;49.456;2022-07-29T07:47:09;27.73;35.54
67555;HTU21D;54385;53.516;49.456;2022-07-29T07:49:35;27.75;34.80
67555;HTU21D;54385;53.516;49.456;2022-07-29T07:52:02;27.63;34.70
67555;HTU21D;54385;53.516;49.456;2022-07-29T07:54:28;27.71;35.05
67555;HTU21D;54385;53.516;49.456;2022-07-29T07:56:55;27.80;34.95
67555;HTU21D;54385;53.516;49.456;2022-07-29T07:59:21;27.90;34.71
67555;HTU21D;54385;53.516;49.456;2022-07-29T08:01:48;27.96;35.18
67555;HTU21D;54385;53.516;49.456;2022-07-29T08:04:17;28.05;34.66
67555;HTU21D;54385;53.516;49.456;2022-07-29T08:06:44;28.02;34.26
67555;HTU21D;54385;53.516;49.456;2022-07-29T08:09:10;28.11;34.06
67555;HTU21D;54385;53.516;49.456;2022-07-29T08:11:37;28.14;33.89
67555;HTU21D;54385;53.516;49.456;2022-07-29T08:14:03;28.18;34.31
67555;HTU21D;54385;53.516;49.456;2022-07-29T08:16:30;28.15;34.79
67555;HTU21D;54385;53.516;49.456;2022-07-29T08:18:56;28.21;33.85
67555;HTU21D;54385;53.516;49.456;2022-07-29T08:21:23;28.14;34.37
67555;HTU21D;54385;53.516;49.456;2022-07-29T08:23:51;28.24;34.08
67555;HTU21D;54385;53.516;49.456;2022-07-29T08:26:42;28.26;34.79
67555;HTU21D;54385;53.516;49.456;2022-07-29T08:29:09;28.38;34.36
67555;HTU21D;54385;53.516;49.456;2022-07-29T08:31:36;28.48;34.41
67555;HTU21D;54385;53.516;49.456;2022-07-29T08:34:04;28.50;33.34
67555;HTU21D;54385;53.516;49.456;2022-07-29T08:36:34;28.56;33.18
67555;HTU21D;54385;53.516;49.456;2022-07-29T08:39:03;28.67;33.05
67555;HTU21D;54385;53.516;49.456;2022-07-29T08:41:29;28.55;32.69
67555;HTU21D;54385;53.516;49.456;2022-07-29T08:43:58;28.64;33.74
67555;HTU21D;54385;53.516;49.456;2022-07-29T08:46:36;28.73;32.83
67555;HTU21D;54385;53.516;49.456;2022-07-29T08:49:06;28.82;32.96
67555;HTU21D;54385;53.516;49.456;2022-07-29T08:51:34;28.90;32.99
67555;HTU21D;54385;53.516;49.456;2022-07-29T08:54:02;29.02;32.75
67555;HTU21D;54385;53.516;49.456;2022-07-29T08:56:30;29.11;32.84
67555;HTU21D;54385;53.516;49.456;2022-07-29T08:58:58;29.19;32.49
67555;HTU21D;54385;53.516;49.456;2022-07-29T09:01:29;29.24;32.31
67555;HTU21D;54385;53.516;49.456;2022-07-29T09:03:59;29.27;31.93
67555;HTU21D;54385;53.516;49.456;2022-07-29T09:06:31;29.28;31.82
67555;HTU21D;54385;53.516;49.456;2022-07-29T09:09:01;29.48;31.26
67555;HTU21D;54385;53.516;49.456;2022-07-29T09:11:32;29.45;30.67
67555;HTU21D;54385;53.516;49.456;2022-07-29T09:13:59;29.43;31.13
67555;HTU21D;54385;53.516;49.456;2022-07-29T09:16:34;29.42;31.45
67555;HTU21D;54385;53.516;49.456;2022-07-29T09:19:31;29.62;30.87
67555;HTU21D;54385;53.516;49.456;2022-07-29T09:22:01;29.86;30.90
67555;HTU21D;54385;53.516;49.456;2022-07-29T09:24:45;29.96;29.88
67555;HTU21D;54385;53.516;49.456;2022-07-29T09:27:24;29.95;30.22
67555;HTU21D;54385;53.516;49.456;2022-07-29T09:30:06;29.93;28.82
67555;HTU21D;54385;53.516;49.456;2022-07-29T09:32:54;29.81;30.14
67555;HTU21D;54385;53.516;49.456;2022-07-29T09:35:29;29.62;30.85
67555;HTU21D;54385;53.516;49.456;2022-07-29T09:37:56;29.83;30.65
67555;HTU21D;54385;53.516;49.456;2022-07-29T09:40:27;29.83;28.80
67555;HTU21D;54385;53.516;49.456;2022-07-29T09:42:57;29.85;29.94
67555;HTU21D;54385;53.516;49.456;2022-07-29T09:45:33;30.00;30.13
67555;HTU21D;54385;53.516;49.456;2022-07-29T09:48:18;29.94;29.20
67555;HTU21D;54385;53.516;49.456;2022-07-29T09:50:46;29.98;29.51
67555;HTU21D;54385;53.516;49.456;2022-07-29T09:53:34;30.02;27.81
67555;HTU21D;54385;53.516;49.456;2022-07-29T09:56:02;30.19;29.45
67555;HTU21D;54385;53.516;49.456;2022-07-29T09:58:32;30.83;28.93
67555;HTU21D;54385;53.516;49.456;2022-07-29T10:01:02;31.53;27.74
67555;HTU21D;54385;53.516;49.456;2022-07-29T10:03:29;31.80;27.16
67555;HTU21D;54385;53.516;49.456;2022-07-29T10:06:09;31.95;25.59
67555;HTU21D;54385;53.516;49.456;2022-07-29T10:08:37;32.25;26.63
67555;HTU21D;54385;53.516;49.456;2022-07-29T10:11:14;32.71;24.04
67555;HTU21D;54385;53.516;49.456;2022-07-29T10:13:41;33.07;25.16
67555;HTU21D;54385;53.516;49.456;2022-07-29T10:16:09;33.60;24.20
67555;HTU21D;54385;53.516;49.456;2022-07-29T10:18:38;34.15;23.17
67555;HTU21D;54385;53.516;49.456;2022-07-29T10:21:05;34.69;22.28
67555;HTU21D;54385;53.516;49.456;2022-07-29T10:23:34;34.71;22.74
67555;HTU21D;54385;53.516;49.456;2022-07-29T10:26:02;35.22;22.70
67555;HTU21D;54385;53.516;49.456;2022-07-29T10:28:31;35.21;22.30
67555;HTU21D;54385;53.516;49.456;2022-07-29T10:31:03;35.59;21.89
67555;HTU21D;54385;53.516;49.456;2022-07-29T10:36:21;35.72;20.60
67555;HTU21D;54385;53.516;49.456;2022-07-29T10:39:19;35.87;20.14
67555;HTU21D;54385;53.516;49.456;2022-07-29T10:42:22;35.90;22.45
67555;HTU21D;54385;53.516;49.456;2022-07-29T10:44:51;36.09;21.66
67555;HTU21D;54385;53.516;49.456;2022-07-29T10:47:23;35.68;19.69
67555;HTU21D;54385;53.516;49.456;2022-07-29T10:49:58;35.43;20.64
67555;HTU21D;54385;53.516;49.456;2022-07-29T10:52:52;35.31;21.24
67555;HTU21D;54385;53.516;49.456;2022-07-29T10:55:38;34.55;22.98
67555;HTU21D;54385;53.516;49.456;2022-07-29T10:58:13;34.91;22.16
67555;HTU21D;54385;53.516;49.456;2022-07-29T11:00:44;35.45;21.69
67555;HTU21D;54385;53.516;49.456;2022-07-29T11:06:11;36.07;21.11
67555;HTU21D;54385;53.516;49.456;2022-07-29T11:08:37;36.38;20.86
67555;HTU21D;54385;53.516;49.456;2022-07-29T11:11:33;36.62;19.43
67555;HTU21D;54385;53.516;49.456;2022-07-29T11:13:59;36.37;20.19
67555;HTU21D;54385;53.516;49.456;2022-07-29T11:17:02;36.15;19.54
67555;HTU21D;54385;53.516;49.456;2022-07-29T11:19:31;36.29;20.02
67555;HTU21D;54385;53.516;49.456;2022-07-29T11:21:58;36.30;19.92
67555;HTU21D;54385;53.516;49.456;2022-07-29T11:24:29;36.62;19.62
67555;HTU21D;54385;53.516;49.456;2022-07-29T11:29:37;36.40;20.37
67555;HTU21D;54385;53.516;49.456;2022-07-29T11:32:11;36.54;20.53
67555;HTU21D;54385;53.516;49.456;2022-07-29T11:34:38;36.49;19.61
67555;HTU21D;54385;53.516;49.456;2022-07-29T11:39:39;36.34;19.83
67555;HTU21D;54385;53.516;49.456;2022-07-29T11:45:05;36.56;20.06
67555;HTU21D;54385;53.516;49.456;2022-07-29T11:47:34;36.59;19.70
67555;HTU21D;54385;53.516;49.456;2022-07-29T11:50:05;36.56;19.83
67555;HTU21D;54385;53.516;49.456;2022-07-29T11:52:44;36.93;18.55
67555;HTU21D;54385;53.516;49.456;2022-07-29T11:55:19;37.11;17.63
67555;HTU21D;54385;53.516;49.456;2022-07-29T11:57:51;37.33;17.79
67555;HTU21D;54385;53.516;49.456;2022-07-29T12:00:23;37.43;17.80
67555;HTU21D;54385;53.516;49.456;2022-07-29T12:02:50;36.99;18.17
67555;HTU21D;54385;53.516;49.456;2022-07-29T12:05:17;36.25;18.57
67555;HTU21D;54385;53.516;49.456;2022-07-29T12:07:44;36.36;18.41
67555;HTU21D;54385;53.516;49.456;2022-07-29T12:10:10;36.72;18.43
67555;HTU21D;54385;53.516;49.456;2022-07-29T12:12:37;37.03;18.31
67555;HTU21D;54385;53.516;49.456;2022-07-29T12:17:38;37.35;17.30
67555;HTU21D;54385;53.516;49.456;2022-07-29T12:20:08;37.17;17.66
67555;HTU21D;54385;53.516;49.456;2022-07-29T12:22:37;37.07;17.82
67555;HTU21D;54385;53.516;49.456;2022-07-29T12:25:09;36.73;18.48
67555;HTU21D;54385;53.516;49.456;2022-07-29T12:27:36;36.41;18.30
67555;HTU21D;54385;53.516;49.456;2022-07-29T12:30:08;35.47;19.81
67555;HTU21D;54385;53.516;49.456;2022-07-29T12:32:39;35.22;19.67
67555;HTU21D;54385;53.516;49.456;2022-07-29T12:35:12;35.07;20.44
67555;HTU21D;54385;53.516;49.456;2022-07-29T12:37:41;34.93;20.18
67555;HTU21D;54385;53.516;49.456;2022-07-29T12:40:10;34.69;20.66
67555;HTU21D;54385;53.516;49.456;2022-07-29T12:42:49;34.73;20.87
67555;HTU21D;54385;53.516;49.456;2022-07-29T12:45:29;35.29;20.60
67555;HTU21D;54385;53.516;49.456;2022-07-29T12:47:56;35.89;20.03
67555;HTU21D;54385;53.516;49.456;2022-07-29T12:50:26;36.58;18.82
67555;HTU21D;54385;53.516;49.456;2022-07-29T12:52:52;36.93;18.38
67555;HTU21D;54385;53.516;49.456;2022-07-29T12:55:42;36.88;18.27
67555;HTU21D;54385;53.516;49.456;2022-07-29T12:58:09;36.72;17.93
67555;HTU21D;54385;53.516;49.456;2022-07-29T13:00:35;36.68;18.03
67555;HTU21D;54385;53.516;49.456;2022-07-29T13:03:02;36.97;18.35
67555;HTU21D;54385;53.516;49.456;2022-07-29T13:05:43;37.44;17.12
67555;HTU21D;54385;53.516;49.456;2022-07-29T13:08:14;37.87;16.52
67555;HTU21D;54385;53.516;49.456;2022-07-29T13:10:43;38.21;16.40
67555;HTU21D;54385;53.516;49.456;2022-07-29T13:13:12;38.39;16.74
67555;HTU21D;54385;53.516;49.456;2022-07-29T13:15:41;38.53;16.30
67555;HTU21D;54385;53.516;49.456;2022-07-29T13:18:31;38.59;15.90
67555;HTU21D;54385;53.516;49.456;2022-07-29T13:21:14;38.14;15.73
67555;HTU21D;54385;53.516;49.456;2022-07-29T13:23:41;37.74;16.52
67555;HTU21D;54385;53.516;49.456;2022-07-29T13:26:12;37.34;16.89
67555;HTU21D;54385;53.516;49.456;2022-07-29T13:28:39;37.40;16.19
67555;HTU21D;54385;53.516;49.456;2022-07-29T13:31:05;37.45;16.22
67555;HTU21D;54385;53.516;49.456;2022-07-29T13:33:35;37.61;16.26
67555;HTU21D;54385;53.516;49.456;2022-07-29T13:36:04;37.94;16.09
67555;HTU21D;54385;53.516;49.456;2022-07-29T13:38:34;38.14;16.31
67555;HTU21D;54385;53.516;49.456;2022-07-29T13:41:01;38.43;15.75
67555;HTU21D;54385;53.516;49.456;2022-07-29T13:43:27;38.70;15.81
67555;HTU21D;54385;53.516;49.456;2022-07-29T13:45:53;38.56;15.53
67555;HTU21D;54385;53.516;49.456;2022-07-29T13:48:20;38.17;16.02
67555;HTU21D;54385;53.516;49.456;2022-07-29T13:50:50;38.01;16.02
67555;HTU21D;54385;53.516;49.456;2022-07-29T13:53:17;37.57;16.63
67555;HTU21D;54385;53.516;49.456;2022-07-29T13:55:43;36.98;16.73
67555;HTU21D;54385;53.516;49.456;2022-07-29T13:58:10;36.24;17.66
67555;HTU21D;54385;53.516;49.456;2022-07-29T14:00:40;35.26;18.45
67555;HTU21D;54385;53.516;49.456;2022-07-29T14:03:06;34.90;18.80
67555;HTU21D;54385;53.516;49.456;2022-07-29T14:05:33;34.45;19.67
67555;HTU21D;54385;53.516;49.456;2022-07-29T14:07:59;34.21;20.08
67555;HTU21D;54385;53.516;49.456;2022-07-29T14:10:26;33.86;20.60
67555;HTU21D;54385;53.516;49.456;2022-07-29T14:12:53;33.45;20.70
67555;HTU21D;54385;53.516;49.456;2022-07-29T14:15:19;33.09;21.18
67555;HTU21D;54385;53.516;49.456;2022-07-29T14:17:46;32.76;21.49
67555;HTU21D;54385;53.516;49.456;2022-07-29T14:20:12;32.28;22.73
67555;HTU21D;54385;53.516;49.456;2022-07-29T14:22:44;31.92;22.52
67555;HTU21D;54385;53.516;49.456;2022-07-29T14:25:11;31.56;22.92
67555;HTU21D;54385;53.516;49.456;2022-07-29T14:27:37;31.36;23.78
67555;HTU21D;54385;53.516;49.456;2022-07-29T14:30:04;31.08;24.40
67555;HTU21D;54385;53.516;49.456;2022-07-29T14:32:31;31.01;24.67
67555;HTU21D;54385;53.516;49.456;2022-07-29T14:35:00;31.18;25.62
67555;HTU21D;54385;53.516;49.456;2022-07-29T14:37:27;31.39;25.49
67555;HTU21D;54385;53.516;49.456;2022-07-29T14:39:53;31.61;25.65
67555;HTU21D;54385;53.516;49.456;2022-07-29T14:42:26;31.65;24.27
67555;HTU21D;54385;53.516;49.456;2022-07-29T14:44:52;31.61;24.72
67555;HTU21D;54385;53.516;49.456;2022-07-29T14:47:19;31.52;25.24
67555;HTU21D;54385;53.516;49.456;2022-07-29T14:49:47;31.23;26.33
67555;HTU21D;54385;53.516;49.456;2022-07-29T14:52:14;30.98;26.40
67555;HTU21D;54385;53.516;49.456;2022-07-29T14:54:40;30.87;26.27
67555;HTU21D;54385;53.516;49.456;2022-07-29T14:57:07;30.59;26.61
67555;HTU21D;54385;53.516;49.456;2022-07-29T14:59:33;30.35;26.12
67555;HTU21D;54385;53.516;49.456;2022-07-29T15:02:00;30.25;26.22
67555;HTU21D;54385;53.516;49.456;2022-07-29T15:04:26;30.12;26.51
67555;HTU21D;54385;53.516;49.456;2022-07-29T15:06:53;29.94;26.62
67555;HTU21D;54385;53.516;49.456;2022-07-29T15:09:26;29.77;26.66
67555;HTU21D;54385;53.516;49.456;2022-07-29T15:11:53;29.70;26.78
67555;HTU21D;54385;53.516;49.456;2022-07-29T15:14:26;29.51;26.65
67555;HTU21D;54385;53.516;49.456;2022-07-29T15:16:54;29.52;27.17
67555;HTU21D;54385;53.516;49.456;2022-07-29T15:19:24;29.62;28.19
67555;HTU21D;54385;53.516;49.456;2022-07-29T15:21:50;29.47;29.58
67555;HTU21D;54385;53.516;49.456;2022-07-29T15:24:17;29.44;30.03
67555;HTU21D;54385;53.516;49.456;2022-07-29T15:26:44;29.44;31.20
67555;HTU21D;54385;53.516;49.456;2022-07-29T15:29:11;29.37;31.31
67555;HTU21D;54385;53.516;49.456;2022-07-29T15:31:38;29.14;32.25
67555;HTU21D;54385;53.516;49.456;2022-07-29T15:34:07;28.80;33.13
67555;HTU21D;54385;53.516;49.456;2022-07-29T15:36:34;28.64;33.85
67555;HTU21D;54385;53.516;49.456;2022-07-29T15:39:01;28.45;35.49
67555;HTU21D;54385;53.516;49.456;2022-07-29T15:41:27;28.37;36.51